createdAt,value
2023-04-18T00:01:44.735Z,100410.75
2023-04-18T00:05:48.245Z,100405.28
2023-04-18T00:09:50.044Z,100407.38
2023-04-18T00:13:51.722Z,100409.03
2023-04-18T00:17:56.613Z,100404.19
2023-04-18T00:21:58.389Z,100404.19
2023-04-18T00:26:00.286Z,100396.81
2023-04-18T00:30:02.184Z,100403.13
2023-04-18T00:34:05.762Z,100396.59
2023-04-18T00:38:07.583Z,100389.66
2023-04-18T00:42:09.533Z,100402.28
2023-04-18T00:46:11.368Z,100394.06
2023-04-18T00:50:13.401Z,100388.81
2023-04-18T00:54:18.723Z,100390.06
2023-04-18T00:58:20.639Z,100390.06
2023-04-18T01:02:23.026Z,100393.91
2023-04-18T01:06:28.769Z,100384.63
2023-04-18T01:10:32.322Z,100382.09
2023-04-18T01:14:34.191Z,100385.69
2023-04-18T01:18:40.414Z,100376.25
2023-04-18T01:22:42.889Z,100376.69
2023-04-18T01:26:47.761Z,100372.31
2023-04-18T01:30:49.518Z,100368.09
2023-04-18T01:34:53.913Z,100369.38
2023-04-18T01:38:55.981Z,100371.03
2023-04-18T01:42:57.711Z,100364.47
2023-04-18T01:47:00.167Z,100366.75
2023-04-18T01:51:01.948Z,100363.97
2023-04-18T01:55:04.182Z,100354.00
2023-04-18T01:59:05.899Z,100360.06
2023-04-18T02:03:07.872Z,100350.75
2023-04-18T02:07:09.763Z,100349.66
2023-04-18T02:11:11.519Z,100351.94
2023-04-18T02:15:13.749Z,100359.63
2023-04-18T02:19:15.474Z,100359.81
2023-04-18T02:23:18.498Z,100353.84
2023-04-18T02:27:20.282Z,100351.47
2023-04-18T02:31:22.015Z,100356.69
2023-04-18T02:35:24.264Z,100350.78
2023-04-18T02:39:25.976Z,100364.19
2023-04-18T02:43:27.724Z,100352.81
2023-04-18T02:47:31.662Z,100357.41
2023-04-18T02:51:35.742Z,100355.06
2023-04-18T02:55:37.763Z,100355.25
2023-04-18T02:59:39.594Z,100361.75
2023-04-18T03:04:02.715Z,100365.50
2023-04-18T03:08:16.533Z,100366.56
2023-04-18T03:12:18.366Z,100363.84
2023-04-18T03:16:21.521Z,100380.22
2023-04-18T03:20:23.879Z,100376.19
2023-04-18T03:24:27.128Z,100383.91
2023-04-18T03:28:32.673Z,100387.41
2023-04-18T03:32:35.375Z,100385.03
2023-04-18T03:36:37.536Z,100386.38
2023-04-18T03:40:40.312Z,100383.41
2023-04-18T03:44:49.943Z,100377.91
2023-04-18T03:48:51.923Z,100374.91
2023-04-18T03:52:53.713Z,100370.00
2023-04-18T03:56:55.930Z,100365.72
2023-04-18T04:00:58.501Z,100372.22
2023-04-18T04:05:00.531Z,100361.31
2023-04-18T04:09:02.761Z,100363.06
2023-04-18T04:13:05.050Z,100369.22
2023-04-18T04:17:10.658Z,100364.50
2023-04-18T04:21:14.427Z,100363.72
2023-04-18T04:25:24.614Z,100358.34
2023-04-18T04:29:29.320Z,100355.91
2023-04-18T04:33:33.508Z,100346.34
2023-04-18T04:37:41.314Z,100351.88
2023-04-18T04:42:04.749Z,100346.47
2023-04-18T04:46:15.705Z,100351.97
2023-04-18T04:50:19.069Z,100347.41
2023-04-18T04:54:20.853Z,100355.31
2023-04-18T04:58:22.821Z,100355.78
2023-04-18T05:02:48.783Z,100353.78
2023-04-18T05:06:51.104Z,100364.34
2023-04-18T05:10:52.801Z,100362.47
2023-04-18T05:14:54.446Z,100358.50
2023-04-18T05:18:57.011Z,100369.09
2023-04-18T05:22:58.724Z,100374.47
2023-04-18T05:27:00.648Z,100389.75
2023-04-18T05:31:02.628Z,100384.09
2023-04-18T05:35:07.282Z,100390.88
2023-04-18T05:39:10.642Z,100391.31
2023-04-18T05:43:15.680Z,100396.56
2023-04-18T05:47:22.731Z,100393.59
2023-04-18T05:51:28.777Z,100390.59
2023-04-18T05:55:30.540Z,100396.91
2023-04-18T05:59:32.534Z,100409.53
2023-04-18T06:03:36.816Z,100412.00
2023-04-18T06:07:42.810Z,100410.25
2023-04-18T06:11:46.890Z,100421.59
2023-04-18T06:15:54.999Z,100426.66
2023-04-18T06:19:57.652Z,100431.06
2023-04-18T06:24:01.632Z,100435.22
2023-04-18T06:28:03.478Z,100435.38
2023-04-18T06:32:10.802Z,100441.22
2023-04-18T06:36:14.145Z,100433.28
2023-04-18T06:40:17.681Z,100442.69
2023-04-18T06:44:20.645Z,100445.38
2023-04-18T06:48:26.682Z,100454.19
2023-04-18T06:52:30.727Z,100449.72
2023-04-18T06:56:36.429Z,100447.97
2023-04-18T07:00:40.612Z,100460.56
2023-04-18T07:04:44.089Z,100452.06
2023-04-18T07:08:46.093Z,100448.56
2023-04-18T07:12:48.985Z,100454.94
2023-04-18T07:16:54.379Z,100460.06
2023-04-18T07:20:57.957Z,100458.16
2023-04-18T07:25:03.026Z,100459.47
2023-04-18T07:29:05.132Z,100462.22
2023-04-18T07:33:06.864Z,100466.66
2023-04-18T07:37:14.677Z,100459.78
2023-04-18T07:41:17.885Z,100461.53
2023-04-18T07:45:21.426Z,100454.03
2023-04-18T07:49:24.020Z,100471.25
2023-04-18T07:53:28.693Z,100462.66
2023-04-18T07:57:31.992Z,100468.50
2023-04-18T08:01:36.032Z,100467.34
2023-04-18T08:05:40.553Z,100478.38
2023-04-18T08:09:46.618Z,100487.47
2023-04-18T08:13:50.613Z,100479.38
2023-04-18T08:17:53.797Z,100485.31
2023-04-18T08:22:08.034Z,100484.69
2023-04-18T08:26:09.906Z,100476.38
2023-04-18T08:30:12.242Z,100488.13
2023-04-18T08:34:14.234Z,100479.91
2023-04-18T08:38:17.913Z,100480.78
2023-04-18T08:42:26.599Z,100477.91
2023-04-18T08:46:34.331Z,100483.56
2023-04-18T08:50:36.391Z,100482.13
2023-04-18T08:54:44.242Z,100485.31
2023-04-18T08:58:47.614Z,100489.84
2023-04-18T09:02:56.179Z,100492.81
2023-04-18T09:06:59.605Z,100488.97
2023-04-18T09:11:31.032Z,100493.38
2023-04-18T09:15:33.125Z,100487.47
2023-04-18T09:19:38.669Z,100466.88
2023-04-18T09:23:42.041Z,100474.53
2023-04-18T09:27:43.889Z,100495.69
2023-04-18T09:32:00.226Z,100487.47
2023-04-18T09:36:22.536Z,100480.81
2023-04-18T09:40:24.507Z,100486.06
2023-04-18T09:44:27.199Z,100487.44
2023-04-18T09:48:30.773Z,100487.03
2023-04-18T09:52:35.819Z,100478.44
2023-04-18T09:56:44.070Z,100475.81
2023-04-18T10:00:47.093Z,100475.44
2023-04-18T10:04:54.525Z,100477.75
2023-04-18T10:08:57.579Z,100480.47
2023-04-18T10:13:01.693Z,100479.06
2023-04-18T10:17:03.776Z,100484.19
2023-04-18T10:21:09.584Z,100457.53
2023-04-18T10:25:11.371Z,100465.03
2023-04-18T10:29:13.370Z,100465.63
2023-04-18T10:33:41.021Z,100455.16
2023-04-18T10:37:59.845Z,100453.69
2023-04-18T10:42:05.436Z,100436.25
2023-04-18T10:46:27.728Z,100445.13
2023-04-18T10:50:34.357Z,100438.28
2023-04-18T10:54:52.599Z,100443.41
2023-04-18T10:59:01.973Z,100432.44
2023-04-18T11:03:04.104Z,100418.06
2023-04-18T11:07:08.581Z,100425.50
2023-04-18T11:11:13.495Z,100417.97
2023-04-18T11:15:22.325Z,100406.00
2023-04-18T11:19:25.944Z,100404.06
2023-04-18T11:23:28.979Z,100402.34
2023-04-18T11:27:32.771Z,100404.56
2023-04-18T11:31:35.576Z,100396.22
2023-04-18T11:35:45.698Z,100401.56
2023-04-18T11:39:48.109Z,100401.81
2023-04-18T11:43:50.002Z,100402.97
2023-04-18T11:47:56.769Z,100399.06
2023-04-18T11:52:01.434Z,100392.84
2023-04-18T11:56:06.593Z,100393.19
2023-04-18T12:00:12.786Z,100397.88
2023-04-18T12:04:17.021Z,100395.63
2023-04-18T12:08:21.846Z,100393.41
2023-04-18T12:12:26.580Z,100405.59
2023-04-18T12:16:28.583Z,100403.81
2023-04-18T12:20:47.552Z,100394.66
2023-04-18T12:25:10.366Z,100396.31
2023-04-18T12:29:12.446Z,100402.31
2023-04-18T12:33:16.438Z,100400.44
2023-04-18T12:37:18.598Z,100411.28
2023-04-18T12:41:22.730Z,100397.38
2023-04-18T12:45:26.140Z,100404.91
2023-04-18T12:49:27.894Z,100417.41
2023-04-18T12:53:33.604Z,100409.91
2023-04-18T12:57:36.580Z,100406.28
2023-04-18T13:01:38.325Z,100401.47
2023-04-18T13:05:41.198Z,100407.44
2023-04-18T13:09:43.037Z,100408.16
2023-04-18T13:13:48.126Z,100405.16
2023-04-18T13:17:50.449Z,100393.25
2023-04-18T13:21:55.605Z,100395.88
2023-04-18T13:25:58.959Z,100393.41
2023-04-18T13:30:01.332Z,100387.13
2023-04-18T13:34:06.932Z,100394.59
2023-04-18T13:38:09.079Z,100389.72
2023-04-18T13:42:16.078Z,100395.03
2023-04-18T13:46:21.619Z,100395.47
2023-04-18T13:50:23.409Z,100382.03
2023-04-18T13:54:28.997Z,100387.72
2023-04-18T13:58:32.928Z,100380.31
2023-04-18T14:02:34.788Z,100375.69
2023-04-18T14:06:41.617Z,100363.19
2023-04-18T14:10:44.189Z,100366.81
2023-04-18T14:14:51.229Z,100369.06
2023-04-18T14:18:54.053Z,100372.59
2023-04-18T14:22:57.596Z,100365.28
2023-04-18T14:27:02.876Z,100362.13
2023-04-18T14:31:06.777Z,100355.00
2023-04-18T14:35:10.121Z,100357.59
2023-04-18T14:39:13.910Z,100357.00
2023-04-18T14:43:16.632Z,100363.88
2023-04-18T14:47:19.702Z,100350.50
2023-04-18T14:51:21.430Z,100353.19
2023-04-18T14:55:24.124Z,100355.28
2023-04-18T14:59:28.979Z,100348.63
2023-04-18T15:03:33.069Z,100359.25
2023-04-18T15:07:36.174Z,100354.88
2023-04-18T15:11:38.210Z,100349.97
2023-04-18T15:15:41.243Z,100354.75
2023-04-18T15:19:44.687Z,100348.66
2023-04-18T15:23:46.835Z,100361.72
2023-04-18T15:27:48.570Z,100333.88
2023-04-18T15:31:51.637Z,100329.63
2023-04-18T15:35:56.636Z,100341.22
2023-04-18T15:39:58.928Z,100334.59
2023-04-18T15:44:01.654Z,100353.38
2023-04-18T15:48:03.701Z,100349.50
2023-04-18T15:52:07.180Z,100343.94
2023-04-18T15:56:11.670Z,100345.63
2023-04-18T16:00:19.792Z,100345.31
2023-04-18T16:04:25.660Z,100348.91
2023-04-18T16:08:27.548Z,100354.75
2023-04-18T16:12:31.154Z,100359.47
2023-04-18T16:16:34.590Z,100357.81
2023-04-18T16:20:36.718Z,100366.66
2023-04-18T16:24:40.886Z,100374.91
2023-04-18T16:28:44.151Z,100368.59
2023-04-18T16:32:46.212Z,100369.53
2023-04-18T16:36:50.741Z,100370.03
2023-04-18T16:40:57.551Z,100366.28
2023-04-18T16:45:03.355Z,100370.84
2023-04-18T16:49:05.256Z,100370.81
2023-04-18T16:53:07.974Z,100377.91
2023-04-18T16:57:09.803Z,100371.19
2023-04-18T17:01:11.465Z,100389.72
2023-04-18T17:05:14.709Z,100384.59
2023-04-18T17:09:16.885Z,100393.91
2023-04-18T17:13:30.403Z,100400.41
2023-04-18T17:17:33.251Z,100402.19
2023-04-18T17:21:36.121Z,100407.28
2023-04-18T17:25:38.287Z,100407.59
2023-04-18T17:29:41.068Z,100403.47
2023-04-18T17:33:43.183Z,100416.88
2023-04-18T17:37:48.754Z,100413.22
2023-04-18T17:41:50.876Z,100411.41
2023-04-18T17:45:52.725Z,100429.19
2023-04-18T17:49:55.247Z,100424.88
2023-04-18T17:53:57.134Z,100431.66
2023-04-18T17:57:59.005Z,100436.47
2023-04-18T18:02:00.782Z,100439.16
2023-04-18T18:06:02.953Z,100448.13
2023-04-18T18:10:06.554Z,100453.81
2023-04-18T18:14:12.022Z,100449.94
2023-04-18T18:18:14.118Z,100462.78
2023-04-18T18:22:17.880Z,100462.91
2023-04-18T18:26:19.765Z,100466.44
2023-04-18T18:30:21.705Z,100467.94
2023-04-18T18:34:27.831Z,100477.56
2023-04-18T18:38:29.613Z,100477.13
2023-04-18T18:42:31.346Z,100479.53
2023-04-18T18:46:34.432Z,100487.50
2023-04-18T18:50:36.381Z,100503.47
2023-04-18T18:54:38.070Z,100505.06
2023-04-18T18:58:41.604Z,100511.66
2023-04-18T19:02:43.439Z,100509.75
2023-04-18T19:06:45.328Z,100512.19
2023-04-18T19:10:48.835Z,100520.97
2023-04-18T19:14:52.593Z,100519.53
2023-04-18T19:18:54.354Z,100529.41
2023-04-18T19:22:56.025Z,100533.75
2023-04-18T19:26:57.820Z,100534.81
2023-04-18T19:31:00.125Z,100528.94
2023-04-18T19:35:01.939Z,100535.19
2023-04-18T19:39:03.787Z,100542.63
2023-04-18T19:43:06.925Z,100535.44
2023-04-18T19:47:09.127Z,100533.16
2023-04-18T19:51:12.302Z,100536.41
2023-04-18T19:55:14.167Z,100538.56
2023-04-18T19:59:19.607Z,100534.00
2023-04-18T20:03:21.874Z,100542.63
2023-04-18T20:07:26.266Z,100544.56
2023-04-18T20:11:28.597Z,100536.06
2023-04-18T20:15:30.916Z,100543.94
2023-04-18T20:19:32.772Z,100543.56
2023-04-18T20:23:37.855Z,100536.84
2023-04-18T20:27:39.758Z,100537.06
2023-04-18T20:31:44.672Z,100543.94
2023-04-18T20:35:46.910Z,100549.47
2023-04-18T20:39:48.594Z,100539.47
2023-04-18T20:43:53.820Z,100544.91
2023-04-18T20:47:58.899Z,100535.75
2023-04-18T20:52:01.132Z,100543.47
2023-04-18T20:56:03.632Z,100543.47
2023-04-18T21:00:07.394Z,100543.81
2023-04-18T21:04:11.228Z,100549.81
2023-04-18T21:08:13.199Z,100560.38
2023-04-18T21:12:15.144Z,100557.00
2023-04-18T21:16:17.217Z,100551.97
2023-04-18T21:20:20.665Z,100557.97
2023-04-18T21:24:24.080Z,100557.34
2023-04-18T21:28:25.912Z,100558.44
2023-04-18T21:32:27.701Z,100555.47
2023-04-18T21:36:31.386Z,100560.00
2023-04-18T21:40:34.943Z,100560.47
2023-04-18T21:44:37.613Z,100556.03
2023-04-18T21:48:43.586Z,100555.53
2023-04-18T21:52:45.289Z,100559.16
2023-04-18T21:56:46.978Z,100561.06
2023-04-18T22:00:49.436Z,100565.38
2023-04-18T22:04:51.322Z,100562.50
2023-04-18T22:08:53.733Z,100562.75
2023-04-18T22:12:56.229Z,100558.53
2023-04-18T22:16:59.499Z,100557.69
2023-04-18T22:21:05.599Z,100553.72
2023-04-18T22:25:11.813Z,100559.34
2023-04-18T22:29:13.627Z,100557.53
2023-04-18T22:33:15.508Z,100556.91
2023-04-18T22:37:17.567Z,100555.97
2023-04-18T22:41:19.263Z,100561.47
2023-04-18T22:45:21.076Z,100554.63
2023-04-18T22:49:23.317Z,100567.44
2023-04-18T22:53:25.151Z,100557.13
2023-04-18T22:57:26.870Z,100558.22
2023-04-18T23:01:28.655Z,100571.75
2023-04-18T23:05:30.526Z,100568.63
2023-04-18T23:09:33.272Z,100565.97
2023-04-18T23:13:34.942Z,100567.44
2023-04-18T23:17:36.608Z,100565.25
2023-04-18T23:21:38.390Z,100565.97
2023-04-18T23:25:40.117Z,100556.84
2023-04-18T23:29:42.776Z,100568.97
2023-04-18T23:33:45.462Z,100566.66
2023-04-18T23:37:47.120Z,100563.28
2023-04-18T23:41:48.865Z,100558.03
2023-04-18T23:45:50.886Z,100558.63
2023-04-18T23:49:52.847Z,100558.63
2023-04-18T23:53:54.514Z,100557.19
2023-04-18T23:57:56.189Z,100555.72
